createdAt,value
2023-02-14T02:51:08.074Z,8.30
2023-02-14T02:53:54.692Z,7.78
2023-02-14T02:56:45.602Z,7.38
2023-02-14T02:59:19.533Z,7.82
2023-02-14T03:02:10.435Z,7.80
2023-02-14T03:04:55.628Z,6.97
2023-02-14T03:07:35.043Z,7.20
2023-02-14T03:10:15.769Z,7.90
2023-02-14T03:13:10.680Z,7.57
2023-02-14T03:15:50.631Z,7.50
2023-02-14T03:18:55.772Z,7.70
2023-02-14T03:21:31.950Z,7.65
2023-02-14T03:24:08.595Z,7.65
2023-02-14T03:26:58.449Z,7.53
2023-02-14T03:29:36.788Z,7.60
2023-02-14T03:32:15.710Z,7.07
2023-02-14T03:34:59.502Z,6.88
2023-02-14T03:37:35.364Z,8.18
2023-02-14T03:40:11.660Z,9.23
2023-02-14T03:42:44.100Z,8.15
2023-02-14T03:45:15.823Z,7.75
2023-02-14T03:47:44.104Z,7.95
2023-02-14T03:50:19.692Z,6.93
2023-02-14T03:52:50.977Z,7.55
2023-02-14T03:55:24.835Z,7.23
2023-02-14T03:58:07.359Z,7.28
2023-02-14T04:00:37.921Z,7.35
2023-02-14T04:03:12.166Z,7.25
2023-02-14T04:05:43.693Z,7.15
2023-02-14T04:08:12.369Z,7.17
2023-02-14T04:10:42.060Z,6.70
2023-02-14T04:13:09.708Z,6.95
2023-02-14T04:15:37.703Z,7.22
2023-02-14T04:18:23.713Z,6.95
2023-02-14T04:20:51.332Z,7.03
2023-02-14T04:23:19.102Z,7.03
2023-02-14T04:25:46.736Z,6.85
2023-02-14T04:28:14.578Z,6.93
2023-02-14T04:30:42.301Z,6.82
2023-02-14T04:33:10.941Z,6.55
2023-02-14T04:35:39.802Z,6.47
2023-02-14T04:38:07.660Z,7.18
2023-02-14T04:40:35.375Z,6.50
2023-02-14T04:43:04.783Z,6.72
2023-02-14T04:45:32.598Z,6.45
2023-02-14T04:48:00.328Z,6.57
2023-02-14T04:50:27.955Z,6.20
2023-02-14T04:52:55.610Z,5.95
2023-02-14T04:55:23.297Z,6.68
2023-02-14T04:57:51.067Z,6.72
2023-02-14T05:00:19.362Z,6.57
2023-02-14T05:02:47.133Z,7.25
2023-02-14T05:05:14.833Z,6.57
2023-02-14T05:07:47.860Z,6.57
2023-02-14T05:10:15.625Z,6.47
2023-02-14T05:12:43.592Z,6.90
2023-02-14T05:15:11.433Z,6.53
2023-02-14T05:17:40.002Z,6.10
2023-02-14T05:20:07.995Z,6.05
2023-02-14T05:22:35.802Z,6.60
2023-02-14T05:25:03.563Z,6.53
2023-02-14T05:27:31.357Z,6.03
2023-02-14T05:29:59.164Z,6.18
2023-02-14T05:32:26.921Z,6.70
2023-02-14T05:34:54.652Z,6.13
2023-02-14T05:37:22.232Z,6.07
2023-02-14T05:39:50.032Z,5.72
2023-02-14T05:42:17.720Z,6.18
2023-02-14T05:44:45.459Z,6.30
2023-02-14T05:47:13.338Z,6.80
2023-02-14T05:49:40.993Z,5.57
2023-02-14T05:52:08.879Z,6.13
2023-02-14T05:54:36.944Z,6.20
2023-02-14T05:57:04.690Z,6.22
2023-02-14T05:59:32.331Z,5.95
2023-02-14T06:02:00.013Z,5.47
2023-02-14T06:04:27.747Z,5.60
2023-02-14T06:06:55.468Z,5.40
2023-02-14T06:09:23.183Z,5.45
2023-02-14T06:11:51.042Z,5.93
2023-02-14T06:14:18.788Z,5.82
2023-02-14T06:16:46.761Z,5.40
2023-02-14T06:19:14.502Z,5.60
2023-02-14T06:21:42.316Z,5.55
2023-02-14T06:24:10.042Z,5.68
2023-02-14T06:26:37.809Z,5.43
2023-02-14T06:29:05.668Z,5.50
2023-02-14T06:31:33.604Z,5.82
2023-02-14T06:34:01.822Z,5.47
2023-02-14T06:36:29.517Z,5.60
2023-02-14T06:38:57.524Z,5.93
2023-02-14T06:41:25.541Z,5.57
2023-02-14T06:43:53.248Z,5.80
2023-02-14T06:46:21.442Z,5.80
2023-02-14T06:48:49.269Z,5.53
2023-02-14T06:51:16.961Z,5.88
2023-02-14T06:53:44.720Z,6.30
2023-02-14T06:56:12.517Z,5.90
2023-02-14T06:58:40.147Z,6.18
2023-02-14T07:01:07.788Z,5.63
2023-02-14T07:03:35.543Z,5.57
2023-02-14T07:06:03.363Z,6.10
2023-02-14T07:08:31.118Z,5.55
2023-02-14T07:10:59.292Z,5.63
2023-02-14T07:13:27.167Z,5.82
2023-02-14T07:15:54.908Z,6.28
2023-02-14T07:18:22.768Z,5.90
2023-02-14T07:20:51.174Z,6.00
2023-02-14T07:23:18.980Z,5.75
2023-02-14T07:25:46.776Z,5.63
2023-02-14T07:28:14.542Z,6.05
2023-02-14T07:30:42.330Z,5.82
2023-02-14T07:33:10.101Z,6.07
2023-02-14T07:35:37.893Z,6.13
2023-02-14T07:38:05.753Z,5.78
2023-02-14T07:40:33.532Z,6.28
2023-02-14T07:43:01.414Z,6.20
2023-02-14T07:45:29.070Z,5.70
2023-02-14T07:47:59.230Z,5.85
2023-02-14T07:50:27.140Z,5.90
2023-02-14T07:52:55.306Z,5.70
2023-02-14T07:55:25.349Z,5.57
2023-02-14T07:57:53.188Z,5.45
2023-02-14T08:00:21.474Z,5.88
2023-02-14T08:02:49.654Z,5.25
2023-02-14T08:05:18.114Z,5.75
2023-02-14T08:07:48.653Z,6.07
2023-02-14T08:10:16.901Z,6.35
2023-02-14T08:12:59.594Z,5.78
2023-02-14T08:15:46.113Z,6.00
2023-02-14T08:18:14.251Z,5.78
2023-02-14T08:20:41.957Z,5.95
2023-02-14T08:23:10.030Z,5.70
2023-02-14T08:25:38.067Z,5.82
2023-02-14T08:28:06.020Z,5.65
2023-02-14T08:30:35.852Z,5.80
2023-02-14T08:33:03.885Z,6.18
2023-02-14T08:35:31.597Z,6.35
2023-02-14T08:37:59.427Z,5.65
2023-02-14T08:40:27.239Z,5.95
2023-02-14T08:42:55.041Z,5.65
2023-02-14T08:45:23.358Z,5.65
2023-02-14T08:47:51.300Z,5.57
2023-02-14T08:50:19.324Z,6.50
2023-02-14T08:52:47.162Z,5.85
2023-02-14T08:55:15.010Z,6.05
2023-02-14T08:57:42.775Z,6.70
2023-02-14T09:00:11.170Z,6.00
2023-02-14T09:02:38.915Z,5.75
2023-02-14T09:05:08.332Z,5.75
2023-02-14T09:07:36.642Z,5.60
2023-02-14T09:10:04.660Z,5.50
2023-02-14T09:12:32.302Z,5.88
2023-02-14T09:14:59.988Z,5.80
2023-02-14T09:17:27.845Z,5.63
2023-02-14T09:19:55.457Z,5.40
2023-02-14T09:22:23.327Z,5.60
2023-02-14T09:24:51.027Z,5.72
2023-02-14T09:27:18.840Z,5.97
2023-02-14T09:29:46.589Z,5.38
2023-02-14T09:32:16.341Z,5.63
2023-02-14T09:34:44.154Z,5.57
2023-02-14T09:37:31.407Z,5.80
2023-02-14T09:39:59.181Z,5.47
2023-02-14T09:42:48.198Z,5.72
2023-02-14T09:45:19.981Z,5.82
2023-02-14T09:48:04.397Z,6.00
2023-02-14T09:51:01.648Z,5.57
2023-02-14T09:53:33.147Z,5.90
2023-02-14T09:56:12.993Z,5.60
2023-02-14T09:58:50.110Z,5.65
2023-02-14T10:01:28.516Z,5.25
2023-02-14T10:04:02.425Z,5.32
2023-02-14T10:06:43.142Z,5.97
2023-02-14T10:09:26.877Z,5.95
2023-02-14T10:11:55.016Z,5.75
2023-02-14T10:14:25.571Z,5.78
2023-02-14T10:17:02.222Z,5.68
2023-02-14T10:19:48.676Z,5.78
2023-02-14T10:22:19.524Z,6.18
2023-02-14T10:24:55.220Z,6.45
2023-02-14T10:27:31.953Z,5.82
2023-02-14T10:30:00.558Z,6.20
2023-02-14T10:33:03.605Z,6.53
2023-02-14T10:35:39.534Z,6.05
2023-02-14T10:38:27.800Z,5.88
2023-02-14T10:41:13.766Z,5.72
2023-02-14T10:43:49.639Z,6.28
2023-02-14T10:46:29.581Z,5.93
2023-02-14T10:49:16.508Z,6.57
2023-02-14T10:51:45.897Z,5.77
2023-02-14T10:54:36.665Z,6.05
2023-02-14T10:57:15.896Z,6.32
2023-02-14T11:00:05.313Z,5.65
2023-02-14T11:02:45.962Z,6.07
2023-02-14T11:05:35.435Z,6.40
2023-02-14T11:08:21.682Z,6.20
2023-02-14T11:10:49.771Z,6.10
2023-02-14T11:13:37.750Z,6.03
2023-02-14T11:16:09.197Z,5.95
2023-02-14T11:18:40.050Z,6.43
2023-02-14T11:21:12.254Z,5.65
2023-02-14T11:23:42.733Z,6.28
2023-02-14T11:26:16.992Z,6.28
2023-02-14T11:28:57.172Z,5.78
2023-02-14T11:31:37.111Z,6.25
2023-02-14T11:34:33.198Z,5.57
2023-02-14T11:37:01.430Z,5.70
2023-02-14T11:39:34.920Z,5.93
2023-02-14T11:42:04.901Z,5.97
2023-02-14T11:44:36.989Z,5.88
2023-02-14T11:47:41.588Z,6.53
2023-02-14T11:50:36.057Z,5.57
2023-02-14T11:53:03.997Z,5.95
2023-02-14T11:55:33.961Z,6.03
2023-02-14T11:58:03.927Z,5.63
2023-02-14T12:00:32.163Z,5.90
2023-02-14T12:03:02.259Z,6.18
2023-02-14T12:05:45.371Z,5.78
2023-02-14T12:08:13.666Z,5.57
2023-02-14T12:10:44.430Z,5.93
2023-02-14T12:13:12.113Z,5.70
2023-02-14T12:15:50.186Z,5.30
2023-02-14T12:18:38.732Z,5.45
2023-02-14T12:21:16.245Z,5.65
2023-02-14T12:24:05.706Z,5.55
2023-02-14T12:26:37.603Z,5.90
2023-02-14T12:29:32.415Z,6.00
2023-02-14T12:32:05.995Z,5.57
2023-02-14T12:34:34.171Z,6.72
2023-02-14T12:37:17.163Z,5.13
2023-02-14T12:39:45.525Z,5.28
2023-02-14T12:42:42.861Z,5.47
2023-02-14T12:45:37.336Z,5.13
2023-02-14T12:48:35.403Z,5.50
2023-02-14T12:51:22.150Z,4.80
2023-02-14T12:53:53.578Z,5.20
2023-02-14T12:56:42.887Z,4.85
2023-02-14T12:59:29.289Z,5.05
2023-02-14T13:02:30.313Z,4.55
2023-02-14T13:05:02.084Z,4.93
2023-02-14T13:07:55.605Z,5.38
2023-02-14T13:10:23.495Z,4.70
2023-02-14T13:13:07.208Z,4.72
2023-02-14T13:15:47.282Z,5.03
2023-02-14T13:18:28.649Z,5.03
2023-02-14T13:20:58.954Z,5.35
2023-02-14T13:23:39.986Z,4.55
2023-02-14T13:26:10.096Z,4.70
2023-02-14T13:28:39.152Z,4.53
2023-02-14T13:31:07.156Z,5.03
2023-02-14T13:33:38.648Z,4.78
2023-02-14T13:36:08.426Z,4.18
2023-02-14T13:38:49.461Z,4.80
2023-02-14T13:41:18.474Z,5.22
2023-02-14T13:43:56.449Z,4.35
2023-02-14T13:46:30.525Z,5.00
2023-02-14T13:49:20.097Z,4.93
2023-02-14T13:51:53.753Z,4.40
2023-02-14T13:54:28.073Z,4.22
2023-02-14T13:56:56.215Z,5.03
2023-02-14T13:59:35.473Z,4.63
2023-02-14T14:02:30.082Z,4.50
2023-02-14T14:04:58.071Z,4.15
2023-02-14T14:07:31.965Z,5.03
2023-02-14T14:10:01.828Z,4.50
2023-02-14T14:12:30.472Z,4.32
2023-02-14T14:15:08.290Z,4.60
2023-02-14T14:17:41.648Z,4.55
2023-02-14T14:20:21.577Z,4.78
2023-02-14T14:22:51.904Z,4.65
2023-02-14T14:25:42.896Z,4.43
2023-02-14T14:28:30.057Z,4.30
2023-02-14T14:30:59.221Z,4.65
2023-02-14T14:33:29.827Z,4.45
2023-02-14T14:36:08.224Z,4.50
2023-02-14T14:38:47.547Z,4.25
2023-02-14T14:41:15.590Z,4.63
2023-02-14T14:43:43.331Z,4.40
2023-02-14T14:46:12.586Z,4.28
2023-02-14T14:48:45.639Z,4.60
2023-02-14T14:51:23.928Z,5.00
2023-02-14T14:54:01.425Z,4.45
2023-02-14T14:56:32.411Z,4.60
2023-02-14T14:59:28.796Z,4.50
2023-02-14T15:01:56.812Z,4.88
2023-02-14T15:04:35.601Z,5.00
2023-02-14T15:07:21.384Z,4.90
2023-02-14T15:09:49.241Z,5.07
2023-02-14T15:12:39.872Z,4.68
2023-02-14T15:15:10.230Z,4.50
2023-02-14T15:17:39.070Z,4.25
2023-02-14T15:20:25.713Z,4.60
2023-02-14T15:22:53.951Z,4.32
2023-02-14T15:25:24.212Z,4.60
2023-02-14T15:27:52.609Z,4.57
2023-02-14T15:30:20.553Z,4.60
2023-02-14T15:32:48.388Z,4.65
2023-02-14T15:35:18.164Z,4.60
2023-02-14T15:37:47.097Z,4.53
2023-02-14T15:40:25.631Z,4.47
2023-02-14T15:42:57.543Z,4.57
2023-02-14T15:45:26.216Z,4.20
2023-02-14T15:47:56.313Z,4.35
2023-02-14T15:50:46.389Z,4.80
2023-02-14T15:53:20.123Z,4.47
2023-02-14T15:55:49.958Z,4.25
2023-02-14T15:58:22.841Z,4.95
2023-02-14T16:00:51.331Z,4.65
2023-02-14T16:03:31.335Z,4.18
2023-02-14T16:05:59.094Z,4.93
2023-02-14T16:08:38.610Z,4.60
2023-02-14T16:11:14.616Z,4.68
2023-02-14T16:13:44.512Z,4.03
2023-02-14T16:16:14.060Z,4.15
2023-02-14T16:18:47.812Z,4.80
2023-02-14T16:21:19.855Z,4.28
2023-02-14T16:24:05.842Z,4.38
2023-02-14T16:26:38.860Z,4.32
2023-02-14T16:29:08.679Z,4.15
2023-02-14T16:31:51.930Z,4.55
2023-02-14T16:34:28.968Z,4.20
2023-02-14T16:36:56.645Z,4.43
2023-02-14T16:39:26.469Z,4.50
2023-02-14T16:41:56.127Z,4.93
2023-02-14T16:44:23.852Z,3.95
2023-02-14T16:46:51.675Z,4.63
2023-02-14T16:49:19.348Z,4.57
2023-02-14T16:51:47.916Z,4.78
2023-02-14T16:54:20.495Z,4.70
2023-02-14T16:56:54.462Z,4.95
2023-02-14T16:59:22.095Z,4.30
2023-02-14T17:01:50.119Z,4.30
2023-02-14T17:04:17.899Z,4.47
2023-02-14T17:06:51.200Z,4.28
2023-02-14T17:09:21.788Z,4.00
2023-02-14T17:11:51.240Z,4.38
2023-02-14T17:14:24.267Z,4.18
2023-02-14T17:16:52.760Z,3.75
2023-02-14T17:19:20.504Z,4.18
2023-02-14T17:21:48.878Z,4.28
2023-02-14T17:24:16.628Z,3.90
2023-02-14T17:26:45.711Z,4.10
2023-02-14T17:29:13.721Z,3.90
2023-02-14T17:31:41.652Z,3.80
2023-02-14T17:34:11.086Z,3.88
2023-02-14T17:36:38.858Z,4.10
2023-02-14T17:39:08.030Z,4.10
2023-02-14T17:41:35.856Z,3.90
2023-02-14T17:44:05.845Z,3.50
2023-02-14T17:46:33.715Z,3.60
2023-02-14T17:49:04.391Z,3.45
2023-02-14T17:51:32.296Z,3.67
2023-02-14T17:54:00.027Z,3.50
2023-02-14T17:56:28.011Z,3.08
2023-02-14T17:58:56.361Z,3.35
2023-02-14T18:01:26.516Z,3.53
2023-02-14T18:03:55.252Z,3.53
2023-02-14T18:06:23.290Z,3.50
2023-02-14T18:08:58.170Z,3.42
2023-02-14T18:11:27.856Z,3.42
2023-02-14T18:13:56.376Z,3.10
2023-02-14T18:16:25.070Z,3.42
2023-02-14T18:18:53.801Z,3.38
2023-02-14T18:21:22.022Z,3.50
2023-02-14T18:23:50.022Z,3.42
2023-02-14T18:26:18.511Z,3.17
2023-02-14T18:28:46.606Z,3.63
2023-02-14T18:31:16.834Z,3.40
2023-02-14T18:33:45.527Z,3.50
2023-02-14T18:36:16.682Z,3.45
2023-02-14T18:38:46.055Z,3.60
2023-02-14T18:41:16.490Z,3.78
2023-02-14T18:43:45.330Z,3.63
2023-02-14T18:46:24.481Z,3.75
2023-02-14T18:48:52.938Z,3.88
2023-02-14T18:51:23.812Z,3.47
2023-02-14T18:53:52.534Z,3.65
2023-02-14T18:56:23.474Z,3.70
2023-02-14T18:58:57.369Z,3.85
2023-02-14T19:01:30.656Z,3.95
2023-02-14T19:04:00.040Z,4.28
2023-02-14T19:06:29.610Z,4.18
2023-02-14T19:08:57.696Z,4.60
2023-02-14T19:11:28.338Z,3.83
2023-02-14T19:13:58.458Z,3.92
2023-02-14T19:16:29.720Z,3.88
2023-02-14T19:18:59.177Z,4.47
2023-02-14T19:21:30.971Z,4.18
2023-02-14T19:23:58.807Z,3.67
2023-02-14T19:26:37.315Z,4.30
2023-02-14T19:29:08.912Z,4.18
